createdAt,value
2019-02-02T00:03:29.915Z,71.50
2019-02-02T00:08:20.824Z,71.80
2019-02-02T00:13:11.747Z,71.30
2019-02-02T00:18:02.650Z,70.10
2019-02-02T00:22:54.289Z,70.20
2019-02-02T00:27:45.186Z,70.20
2019-02-02T00:32:36.143Z,70.60
2019-02-02T00:37:27.050Z,71.10
2019-02-02T00:42:18.037Z,71.20
2019-02-02T00:47:08.965Z,71.30
2019-02-02T00:52:00.613Z,71.90
2019-02-02T00:56:52.365Z,71.20
2019-02-02T01:01:43.213Z,71.20
2019-02-02T01:06:34.117Z,70.00
2019-02-02T01:11:25.019Z,69.90
2019-02-02T01:16:15.986Z,70.30
2019-02-02T01:21:06.959Z,70.70
2019-02-02T01:25:57.865Z,71.10
2019-02-02T01:30:49.565Z,71.40
2019-02-02T01:35:40.483Z,71.40
2019-02-02T01:40:31.395Z,71.50
2019-02-02T01:45:22.297Z,71.80
2019-02-02T01:50:14.068Z,71.40
2019-02-02T01:55:05.081Z,70.20
2019-02-02T01:59:55.991Z,70.10
2019-02-02T02:04:46.915Z,70.40
2019-02-02T02:09:48.096Z,70.70
2019-02-02T02:14:39.040Z,71.10
2019-02-02T02:19:30.685Z,71.40
2019-02-02T02:24:22.346Z,71.50
2019-02-02T02:29:13.247Z,71.50
2019-02-02T02:34:04.153Z,71.90
2019-02-02T02:38:55.787Z,70.30
2019-02-02T02:43:47.447Z,70.00
2019-02-02T02:48:38.352Z,70.00
2019-02-02T02:53:29.996Z,70.80
2019-02-02T02:58:20.892Z,70.80
2019-02-02T03:03:12.554Z,71.30
2019-02-02T03:08:03.460Z,71.30
2019-02-02T03:12:54.363Z,71.50
2019-02-02T03:17:46.017Z,71.80
2019-02-02T03:22:36.935Z,71.70
2019-02-02T03:27:27.849Z,71.80
2019-02-02T03:32:19.529Z,70.00
2019-02-02T03:37:10.402Z,69.90
2019-02-02T03:42:02.056Z,70.70
2019-02-02T03:46:52.951Z,70.70
2019-02-02T03:51:44.595Z,71.30
2019-02-02T03:56:36.231Z,71.40
2019-02-02T04:01:30.016Z,71.50
2019-02-02T04:06:18.812Z,72.10
2019-02-02T04:11:09.721Z,71.80
2019-02-02T04:16:00.647Z,72.20
2019-02-02T04:20:51.544Z,70.80
2019-02-02T04:25:42.443Z,70.00
2019-02-02T04:30:34.087Z,70.70
2019-02-02T04:35:25.742Z,71.10
2019-02-02T04:40:16.640Z,71.10
2019-02-02T04:45:08.284Z,71.60
2019-02-02T04:49:59.933Z,72.20
2019-02-02T04:54:50.840Z,71.60
2019-02-02T04:59:41.743Z,71.80
2019-02-02T05:04:33.394Z,71.30
2019-02-02T05:09:25.048Z,70.20
2019-02-02T05:14:15.962Z,70.30
2019-02-02T05:19:06.870Z,70.30
2019-02-02T05:23:57.791Z,70.70
2019-02-02T05:28:48.693Z,71.10
2019-02-02T05:33:40.372Z,71.60
2019-02-02T05:38:31.283Z,71.60
2019-02-02T05:43:22.188Z,71.70
2019-02-02T05:48:13.092Z,71.80
2019-02-02T05:53:04.736Z,71.40
2019-02-02T05:57:55.648Z,71.40
2019-02-02T06:02:47.297Z,70.30
2019-02-02T06:07:38.200Z,70.20
2019-02-02T06:12:29.843Z,71.10
2019-02-02T06:17:20.744Z,71.10
2019-02-02T06:22:12.401Z,71.60
2019-02-02T06:27:03.304Z,71.60
2019-02-02T06:31:54.968Z,71.90
2019-02-02T06:36:45.870Z,71.90
2019-02-02T06:41:36.767Z,72.20
2019-02-02T06:46:28.416Z,70.50
2019-02-02T06:51:20.056Z,70.20
2019-02-02T06:56:11.700Z,70.50
2019-02-02T07:01:02.623Z,70.50
2019-02-02T07:05:53.519Z,70.90
2019-02-02T07:10:45.176Z,71.60
2019-02-02T07:15:36.087Z,71.50
2019-02-02T07:20:26.983Z,71.70
2019-02-02T07:25:18.657Z,72.10
2019-02-02T07:30:09.559Z,72.00
2019-02-02T07:35:00.461Z,72.10
2019-02-02T07:39:52.099Z,70.20
2019-02-02T07:44:43.757Z,70.50
2019-02-02T07:49:34.665Z,71.10
2019-02-02T07:54:25.568Z,70.90
2019-02-02T07:59:17.215Z,71.60
2019-02-02T08:04:08.865Z,71.80
2019-02-02T08:08:59.775Z,71.80
2019-02-02T08:13:50.740Z,71.90
2019-02-02T08:18:41.627Z,72.00
2019-02-02T08:23:32.594Z,72.20
2019-02-02T08:28:23.505Z,70.80
2019-02-02T08:33:14.414Z,70.20
2019-02-02T08:38:05.331Z,70.50
2019-02-02T08:42:56.258Z,70.90
2019-02-02T08:47:47.163Z,71.30
2019-02-02T08:52:38.151Z,71.60
2019-02-02T08:57:29.882Z,71.90
2019-02-02T09:02:20.724Z,71.90
2019-02-02T09:07:11.636Z,72.10
2019-02-02T09:12:02.552Z,72.20
2019-02-02T09:16:53.508Z,70.80
2019-02-02T09:21:44.388Z,70.20
2019-02-02T09:26:35.291Z,70.50
2019-02-02T09:31:26.948Z,71.30
2019-02-02T09:36:17.853Z,71.30
2019-02-02T09:41:09.495Z,71.90
2019-02-02T09:46:01.141Z,72.10
2019-02-02T09:50:52.047Z,72.10
2019-02-02T09:55:43.698Z,72.40
2019-02-02T10:00:34.603Z,72.50
2019-02-02T10:05:25.520Z,71.00
2019-02-02T10:10:19.008Z,70.40
2019-02-02T10:15:09.920Z,70.30
2019-02-02T10:20:00.890Z,70.80
2019-02-02T10:24:51.773Z,71.20
2019-02-02T10:29:42.681Z,71.60
2019-02-02T10:34:33.711Z,71.90
2019-02-02T10:39:24.507Z,72.00
2019-02-02T10:44:16.163Z,72.50
2019-02-02T10:49:07.072Z,72.40
2019-02-02T10:53:57.987Z,71.10
2019-02-02T10:58:48.883Z,70.20
2019-02-02T11:03:39.956Z,70.30
2019-02-02T11:08:31.099Z,70.80
2019-02-02T11:13:21.808Z,71.30
2019-02-02T11:18:12.699Z,71.60
2019-02-02T11:23:03.666Z,71.90
2019-02-02T11:27:54.823Z,72.10
2019-02-02T11:32:45.491Z,72.20
2019-02-02T11:37:37.351Z,71.50
2019-02-02T11:42:28.995Z,70.40
2019-02-02T11:47:19.891Z,70.50
2019-02-02T11:52:10.815Z,70.40
2019-02-02T11:57:01.730Z,70.80
2019-02-02T12:01:52.636Z,71.30
2019-02-02T12:06:43.550Z,71.80
2019-02-02T12:11:34.472Z,72.00
2019-02-02T12:16:25.385Z,72.20
2019-02-02T12:21:16.292Z,72.40
2019-02-02T12:26:07.205Z,72.70
2019-02-02T12:30:58.108Z,71.70
2019-02-02T12:35:49.020Z,70.50
2019-02-02T12:40:39.919Z,70.50
2019-02-02T12:45:32.516Z,71.30
2019-02-02T12:50:23.433Z,71.30
2019-02-02T12:55:14.344Z,72.40
2019-02-02T13:00:12.252Z,72.00
2019-02-02T13:05:03.165Z,72.20
2019-02-02T13:09:54.077Z,72.40
2019-02-02T13:14:44.995Z,72.70
2019-02-02T13:19:35.901Z,72.10
2019-02-02T13:24:26.839Z,70.70
2019-02-02T13:29:17.735Z,70.70
2019-02-02T13:34:08.640Z,71.00
2019-02-02T13:39:00.288Z,71.90
2019-02-02T13:43:51.183Z,71.80
2019-02-02T13:48:42.820Z,72.30
2019-02-02T13:53:34.464Z,72.40
2019-02-02T13:58:26.124Z,72.60
2019-02-02T14:03:17.136Z,72.60
2019-02-02T14:08:11.623Z,72.30
2019-02-02T14:13:03.368Z,70.60
2019-02-02T14:17:54.272Z,70.70
2019-02-02T14:22:45.932Z,71.50
2019-02-02T14:27:36.841Z,71.40
2019-02-02T14:32:27.760Z,71.80
2019-02-02T14:37:18.665Z,72.10
2019-02-02T14:42:10.317Z,72.30
2019-02-02T14:47:01.224Z,72.30
2019-02-02T14:51:52.913Z,72.50
2019-02-02T14:56:48.067Z,72.40
2019-02-02T15:01:34.764Z,70.90
2019-02-02T15:06:25.672Z,70.50
2019-02-02T15:11:17.415Z,71.40
2019-02-02T15:16:08.332Z,71.40
2019-02-02T15:20:59.237Z,71.80
2019-02-02T15:25:50.152Z,72.00
2019-02-02T15:30:41.377Z,72.10
2019-02-02T15:35:33.068Z,72.50
2019-02-02T15:40:23.963Z,72.40
2019-02-02T15:45:15.610Z,71.10
2019-02-02T15:50:07.248Z,70.50
2019-02-02T15:54:58.143Z,71.10
2019-02-02T15:59:49.044Z,70.80
2019-02-02T16:04:39.972Z,71.80
2019-02-02T16:09:30.888Z,71.60
2019-02-02T16:14:21.801Z,71.90
2019-02-02T16:19:12.703Z,72.20
2019-02-02T16:24:03.603Z,72.30
2019-02-02T16:28:54.508Z,72.50
2019-02-02T16:33:45.403Z,72.80
2019-02-02T16:38:37.048Z,70.50
2019-02-02T16:43:27.942Z,70.50
2019-02-02T16:48:19.596Z,70.90
2019-02-02T16:53:11.252Z,71.60
2019-02-02T16:58:02.153Z,71.60
2019-02-02T17:02:53.797Z,72.30
2019-02-02T17:07:46.437Z,72.20
2019-02-02T17:12:36.359Z,72.50
2019-02-02T17:17:27.268Z,72.50
2019-02-02T17:22:18.176Z,73.00
2019-02-02T17:27:09.841Z,70.80
2019-02-02T17:32:00.745Z,70.80
2019-02-02T17:36:51.651Z,70.80
2019-02-02T17:41:43.286Z,71.80
2019-02-02T17:46:34.928Z,72.10
2019-02-02T17:51:25.831Z,72.00
2019-02-02T17:56:17.488Z,72.60
2019-02-02T18:01:08.404Z,72.50
2019-02-02T18:05:59.312Z,72.60
2019-02-02T18:10:50.955Z,72.70
2019-02-02T18:15:41.871Z,72.70
2019-02-02T18:20:33.544Z,70.80
2019-02-02T18:25:24.437Z,70.80
2019-02-02T18:30:15.332Z,71.20
2019-02-02T18:35:07.036Z,72.10
2019-02-02T18:39:58.700Z,72.30
2019-02-02T18:44:50.351Z,72.60
2019-02-02T18:49:42.000Z,72.70
2019-02-02T18:54:32.907Z,72.60
2019-02-02T18:59:23.810Z,72.80
2019-02-02T19:04:15.452Z,71.60
2019-02-02T19:09:07.115Z,71.00
2019-02-02T19:13:58.028Z,71.00
2019-02-02T19:18:48.936Z,71.20
2019-02-02T19:23:39.843Z,71.70
2019-02-02T19:28:39.378Z,72.30
2019-02-02T19:33:22.405Z,72.30
2019-02-02T19:38:14.047Z,72.70
2019-02-02T19:43:04.939Z,72.70
2019-02-02T19:47:55.835Z,72.90
2019-02-02T19:52:46.741Z,73.30
2019-02-02T19:57:37.643Z,71.90
2019-02-02T20:02:28.556Z,70.80
2019-02-02T20:07:19.455Z,71.00
2019-02-02T20:12:10.391Z,71.50
2019-02-02T20:17:01.300Z,72.10
2019-02-02T20:21:52.201Z,72.40
2019-02-02T20:26:43.847Z,72.80
2019-02-02T20:31:34.753Z,72.80
2019-02-02T20:36:26.406Z,73.20
2019-02-02T20:41:17.317Z,73.20
2019-02-02T20:46:08.231Z,72.80
2019-02-02T20:50:59.885Z,71.10
2019-02-02T20:55:50.791Z,71.10
2019-02-02T21:00:41.704Z,71.50
2019-02-02T21:05:32.652Z,71.90
2019-02-02T21:10:23.570Z,72.30
2019-02-02T21:15:14.487Z,72.60
2019-02-02T21:20:05.415Z,72.80
2019-02-02T21:24:56.323Z,73.00
2019-02-02T21:29:47.251Z,73.00
2019-02-02T21:34:38.164Z,73.20
2019-02-02T21:39:29.088Z,71.80
2019-02-02T21:44:20.747Z,71.40
2019-02-02T21:49:12.400Z,71.90
2019-02-02T21:54:03.303Z,71.90
2019-02-02T21:58:54.961Z,72.50
2019-02-02T22:03:45.876Z,72.40
2019-02-02T22:08:37.515Z,72.70
2019-02-02T22:13:28.434Z,72.80
2019-02-02T22:18:21.722Z,73.00
2019-02-02T22:23:10.289Z,73.50
2019-02-02T22:28:01.191Z,71.90
2019-02-02T22:32:52.153Z,70.90
2019-02-02T22:37:43.076Z,71.20
2019-02-02T22:42:34.740Z,72.20
2019-02-02T22:47:26.457Z,72.50
2019-02-02T22:52:17.380Z,72.40
2019-02-02T22:57:16.136Z,72.90
2019-02-02T23:02:07.072Z,73.50
2019-02-02T23:06:58.931Z,73.00
2019-02-02T23:17:27.658Z,72.50
2019-02-02T23:22:18.567Z,71.40
2019-02-02T23:27:09.472Z,71.30
2019-02-02T23:32:00.389Z,71.70
2019-02-02T23:36:53.887Z,72.10
2019-02-02T23:41:43.017Z,72.70
2019-02-02T23:46:33.935Z,72.60
2019-02-02T23:51:24.843Z,72.80
2019-02-02T23:56:16.740Z,73.30
